Georgia Highway — 7JCV — position and weather

sailwx.info

Track history (hours):
 
Tides and Currents Weather Stations Pressure Air Temp Water Temp Dewpoint Dewpoint Depression Visibility Wind Speed Wind Dir Waves Ship Positions

Georgia Highway

Last reported at 2014-Jul-29 06:22 UTC. Time now 2014-Jul-29 06:39 UTC.
Position N 51°18' E 003°14'.

Length 199 m; draft 8.8 m.

Type: Cargo ship. MMSI: 432629000.

Date/timePositionNaut miles runAvg speedWind from/ knotsBaromVisibWave heightAir tempDewpointWater temp
2014-Jul-29 06:22N 51°18' E 003°14'0 0.0
2014-Jul-29 05:28N 51°18' E 003°14'0 0.0
2014-Jul-29 04:22N 51°18' E 003°14'0 0.0
2014-Jul-29 03:28N 51°18' E 003°14'0 0.0
2014-Jul-29 02:31N 51°18' E 003°14'0 0.0
2014-Jul-29 01:32N 51°18' E 003°14'2 2.2
2014-Jul-29 00:31N 51°20' E 003°13'2 1.8
2014-Jul-28 23:33N 51°22' E 003°12'1111.1
2014-Jul-28 22:33N 51°22' E 002°54'9 9.0
2014-Jul-28 21:33N 51°22' E 002°39'8 7.7
2014-Jul-28 20:33N 51°21' E 002°27'1110.6
2014-Jul-28 19:33N 51°16' E 002°13'1111.2
2014-Jul-28 18:33N 51°10' E 001°57'1313.0
2014-Jul-28 17:33N 51°02' E 001°41'1313.4
2014-Jul-28 16:33N 50°51' E 001°28'1714.0
2014-Jul-28 15:22N 50°38' E 001°12'1214.3
2014-Jul-28 14:33N 50°31' E 000°58'1414.5
2014-Jul-28 13:33N 50°27' E 000°36'1515.1
2014-Jul-28 12:33N 50°23' E 000°13'  
Track history (hours):
 
Tides and Currents Weather Stations Pressure Air Temp Water Temp Dewpoint Dewpoint Depression Visibility Wind Speed Wind Dir Waves Ship Positions

Georgia Highway

Last reported at 2014-Jul-29 06:22 UTC. Time now 2014-Jul-29 06:39 UTC.
Position N 51°18' E 003°14'.

Length 199 m; draft 8.8 m.

Type: Cargo ship. MMSI: 432629000.

Date/timePositionNaut miles runAvg speedWind from/ knotsBaromVisibWave heightAir tempDewpointWater temp
2014-Jul-29 06:22N 51°18' E 003°14'0 0.0
2014-Jul-29 05:28N 51°18' E 003°14'0 0.0
2014-Jul-29 04:22N 51°18' E 003°14'0 0.0
2014-Jul-29 03:28N 51°18' E 003°14'0 0.0
2014-Jul-29 02:31N 51°18' E 003°14'0 0.0
2014-Jul-29 01:32N 51°18' E 003°14'2 2.2
2014-Jul-29 00:31N 51°20' E 003°13'2 1.8
2014-Jul-28 23:33N 51°22' E 003°12'1111.1
2014-Jul-28 22:33N 51°22' E 002°54'9 9.0
2014-Jul-28 21:33N 51°22' E 002°39'8 7.7
2014-Jul-28 20:33N 51°21' E 002°27'1110.6
2014-Jul-28 19:33N 51°16' E 002°13'1111.2
2014-Jul-28 18:33N 51°10' E 001°57'1313.0
2014-Jul-28 17:33N 51°02' E 001°41'1313.4
2014-Jul-28 16:33N 50°51' E 001°28'1714.0
2014-Jul-28 15:22N 50°38' E 001°12'1214.3
2014-Jul-28 14:33N 50°31' E 000°58'1414.5
2014-Jul-28 13:33N 50°27' E 000°36'1515.1
2014-Jul-28 12:33N 50°23' E 000°13'  

Dump ship's entire track history